createdAt,value
2022-08-23T15:05:24.142Z,517
2022-08-23T15:12:57.058Z,439
2022-08-23T15:15:20.875Z,406
2022-08-23T15:20:17.975Z,384
2022-08-23T15:25:18.673Z,342
2022-08-23T15:30:18.672Z,305
2022-08-23T15:35:17.912Z,317
2022-08-23T15:40:17.867Z,308
2022-08-23T15:45:18.072Z,263
2022-08-23T15:50:18.266Z,311
2022-08-23T15:55:17.968Z,310
2022-08-23T16:00:17.978Z,292
2022-08-23T16:05:18.020Z,302
2022-08-23T16:10:17.988Z,299
2022-08-23T16:15:18.267Z,253
2022-08-23T16:20:17.946Z,208
2022-08-23T16:25:19.182Z,190
2022-08-23T16:30:18.005Z,202
2022-08-23T16:35:18.090Z,219
2022-08-23T16:40:17.963Z,213
2022-08-23T16:45:25.934Z,203
2022-08-23T16:50:18.002Z,207
2022-08-23T16:55:18.241Z,211
2022-08-23T17:00:18.188Z,224
2022-08-23T17:05:18.387Z,252
2022-08-23T17:10:18.130Z,322
2022-08-23T17:15:20.323Z,369
2022-08-23T17:20:18.066Z,380
2022-08-23T17:25:18.145Z,362
2022-08-23T17:30:18.320Z,334
2022-08-23T17:35:18.327Z,442
2022-08-23T17:40:21.057Z,518
2022-08-23T17:45:18.291Z,540
2022-08-23T17:50:18.103Z,434
2022-08-23T17:55:16.228Z,416
2022-08-23T18:00:16.147Z,392
2022-08-23T18:05:16.282Z,616
2022-08-23T18:10:16.593Z,777
2022-08-23T18:15:16.303Z,458
2022-08-23T18:20:16.201Z,339
2022-08-23T18:25:16.551Z,314
2022-08-23T18:30:16.431Z,285
2022-08-23T18:35:16.278Z,257
2022-08-23T18:40:16.333Z,237
2022-08-23T18:45:16.823Z,213
2022-08-23T18:50:16.256Z,190
2022-08-23T18:55:16.363Z,163
2022-08-23T19:00:16.366Z,143
2022-08-23T19:05:16.384Z,137
2022-08-23T19:10:20.356Z,137
2022-08-23T19:15:16.493Z,132
2022-08-23T19:20:16.610Z,128
2022-08-23T19:25:16.357Z,125
2022-08-23T19:30:17.439Z,124
2022-08-23T19:35:16.871Z,125
2022-08-23T19:40:16.394Z,122
2022-08-23T19:45:16.450Z,120
2022-08-23T19:50:16.384Z,113
2022-08-23T19:55:16.543Z,98
2022-08-23T20:00:19.576Z,83
2022-08-23T20:05:16.389Z,72
2022-08-23T20:10:16.395Z,67
2022-08-23T20:15:16.582Z,58
2022-08-23T20:20:16.436Z,38
2022-08-23T20:25:16.587Z,31
2022-08-23T20:30:16.715Z,30
2022-08-23T20:35:16.573Z,25
2022-08-23T20:40:16.652Z,23
2022-08-23T20:45:17.121Z,22
2022-08-23T20:50:16.453Z,25
2022-08-23T20:55:16.579Z,27
2022-08-23T21:00:16.622Z,29
2022-08-23T21:05:16.807Z,26
2022-08-23T21:10:16.709Z,28
2022-08-23T21:15:17.090Z,28
2022-08-23T21:20:17.274Z,24
2022-08-23T21:25:16.644Z,20
2022-08-23T21:30:16.664Z,20
2022-08-23T21:35:18.149Z,26
2022-08-23T21:40:16.663Z,46
2022-08-23T21:45:16.687Z,158
2022-08-23T21:50:16.591Z,269
2022-08-23T21:55:17.197Z,325
2022-08-23T22:00:16.698Z,189
2022-08-23T22:05:16.672Z,128
2022-08-23T22:10:16.874Z,125
2022-08-23T22:15:16.755Z,77
2022-08-23T22:20:16.615Z,84
2022-08-23T22:25:16.787Z,64
2022-08-23T22:30:17.002Z,42
2022-08-23T22:35:16.882Z,29
2022-08-23T22:40:17.024Z,15
2022-08-23T22:45:16.987Z,11
2022-08-23T22:50:16.667Z,9
2022-08-23T22:55:16.779Z,5
2022-08-23T23:00:16.749Z,5
2022-08-23T23:05:17.269Z,11
2022-08-23T23:10:18.096Z,17
2022-08-23T23:15:16.930Z,18
2022-08-23T23:20:16.830Z,12
2022-08-23T23:25:16.850Z,3
2022-08-23T23:30:16.912Z,0
2022-08-23T23:35:16.944Z,0
2022-08-23T23:40:16.945Z,0
2022-08-23T23:45:17.283Z,0
2022-08-23T23:50:16.768Z,0
2022-08-23T23:55:16.916Z,0
